Time;durP1;ratioP1;P1;durP2;ratioP2;P2;SDS_P1;SDS_P2;PMS_P1;PMS_P2;Temp;Humidity;BMP_temperature;BMP_pressure;BME280_temperature;BME280_humidity;BME280_pressure;Samples;Min_cycle;Max_cycle;Signal;HPM_P1;HPM_P2
2023/06/12 00:00:40;;;;;;;5.87;5.27;;;21.50;33.40;;;;;;5072666;28;20540;-56
2023/06/12 00:03:06;;;;;;;6.70;4.57;;;21.40;33.80;;;;;;5068776;28;21010;-58
2023/06/12 00:05:32;;;;;;;7.23;5.10;;;21.40;34.10;;;;;;5072578;28;20259;-59
2023/06/12 00:07:58;;;;;;;5.67;5.07;;;21.40;34.40;;;;;;5072571;28;20825;-56
2023/06/12 00:10:24;;;;;;;6.27;5.23;;;21.40;34.30;;;;;;5072313;28;20406;-58
2023/06/12 00:12:50;;;;;;;5.93;5.13;;;21.40;34.50;;;;;;5066745;28;20504;-58
2023/06/12 00:15:16;;;;;;;6.40;4.73;;;21.40;34.70;;;;;;5072502;28;20446;-56
2023/06/12 00:17:42;;;;;;;4.93;4.10;;;21.30;34.40;;;;;;5066000;28;20338;-59
2023/06/12 00:20:08;;;;;;;5.93;4.73;;;21.20;34.50;;;;;;5070441;28;20248;-56
2023/06/12 00:22:39;;;;;;;5.57;5.07;;;21.20;34.70;;;;;;5072514;28;20210;-58
2023/06/12 00:25:07;;;;;;;12.70;5.18;;;21.10;34.50;;;;;;5072476;28;20171;-59
2023/06/12 00:27:32;;;;;;;6.82;5.40;;;21.10;34.70;;;;;;5072299;28;20200;-57
2023/06/12 00:29:58;;;;;;;6.13;4.73;;;21.10;34.50;;;;;;5072212;28;20302;-57
2023/06/12 00:32:24;;;;;;;6.47;5.87;;;21.10;35.00;;;;;;5072606;28;20188;-59
2023/06/12 00:34:50;;;;;;;8.33;5.70;;;21.10;35.10;;;;;;5072241;28;20188;-57
2023/06/12 00:37:17;;;;;;;6.07;5.50;;;21.00;35.00;;;;;;5072174;28;20453;-58
2023/06/12 00:39:44;;;;;;;6.20;4.80;;;21.00;35.10;;;;;;5071886;28;20180;-59
2023/06/12 00:42:10;;;;;;;6.60;4.67;;;20.90;35.10;;;;;;5072322;28;20395;-56
2023/06/12 00:44:36;;;;;;;6.03;5.43;;;20.90;35.30;;;;;;5072220;28;20438;-58
2023/06/12 00:47:03;;;;;;;6.00;4.97;;;20.90;35.30;;;;;;5072008;28;20200;-57
2023/06/12 00:49:29;;;;;;;5.07;4.63;;;20.90;35.40;;;;;;5071835;28;20403;-56
2023/06/12 00:51:55;;;;;;;6.00;4.83;;;20.90;35.60;;;;;;5072317;28;20410;-55
2023/06/12 00:54:25;;;;;;;6.60;6.00;;;20.80;35.50;;;;;;5070753;28;20415;-59
2023/06/12 00:56:51;;;;;;;6.80;5.85;;;20.80;35.40;;;;;;5071981;28;20215;-55
2023/06/12 00:59:17;;;;;;;8.88;5.07;;;20.80;35.40;;;;;;5071679;28;20227;-55
2023/06/12 01:01:43;;;;;;;6.37;5.60;;;20.80;35.40;;;;;;5072000;28;20161;-58
2023/06/12 01:04:09;;;;;;;6.53;5.20;;;20.70;35.30;;;;;;5071955;28;20168;-55
2023/06/12 01:06:51;;;;;;;5.68;5.18;;;20.60;35.30;;;;;;5067701;28;20193;-55
2023/06/12 01:09:43;;;;;;;5.13;4.68;;;20.60;35.70;;;;;;5051598;28;20256;-54
2023/06/12 01:12:11;;;;;;;7.18;5.45;;;20.60;35.80;;;;;;5050435;28;20280;-56
2023/06/12 01:14:37;;;;;;;5.43;4.93;;;20.40;35.80;;;;;;5071961;28;20204;-57
2023/06/12 01:17:03;;;;;;;6.00;5.27;;;20.40;35.80;;;;;;5071867;28;20230;-55
2023/06/12 01:19:29;;;;;;;5.70;4.82;;;20.30;35.90;;;;;;5071550;28;20173;-55
2023/06/12 01:22:02;;;;;;;5.30;4.40;;;20.20;36.20;;;;;;5071817;28;20223;-56
2023/06/12 01:24:42;;;;;;;8.75;6.25;;;20.20;36.20;;;;;;5071682;28;20900;-57
2023/06/12 01:27:37;;;;;;;5.45;4.95;;;20.20;36.20;;;;;;5071842;28;20208;-55
2023/06/12 01:30:34;;;;;;;5.03;4.53;;;20.10;36.50;;;;;;5051886;28;20179;-57
2023/06/12 01:33:05;;;;;;;6.60;5.22;;;20.20;36.50;;;;;;5052801;28;20185;-55
2023/06/12 01:35:36;;;;;;;7.05;5.85;;;20.10;36.60;;;;;;5055922;28;20238;-57
2023/06/12 01:38:06;;;;;;;6.03;5.35;;;20.10;36.40;;;;;;5055423;28;20205;-56
2023/06/12 01:40:34;;;;;;;6.28;5.70;;;20.10;36.50;;;;;;5071469;28;20568;-55
2023/06/12 01:43:00;;;;;;;7.20;6.05;;;20.10;36.40;;;;;;5075395;28;20177;-58
2023/06/12 01:45:25;;;;;;;7.90;5.77;;;20.00;36.20;;;;;;5074223;28;20179;-57
2023/06/12 01:47:51;;;;;;;7.07;6.37;;;20.00;36.70;;;;;;5075282;28;20586;-55
2023/06/12 01:50:17;;;;;;;7.20;5.93;;;19.90;37.00;;;;;;5058616;28;20177;-55
2023/06/12 01:52:43;;;;;;;5.77;5.27;;;19.80;36.60;;;;;;5055326;28;20541;-59
2023/06/12 01:55:09;;;;;;;8.75;6.22;;;19.80;36.70;;;;;;5055455;28;20198;-59
2023/06/12 01:57:37;;;;;;;6.47;5.88;;;19.90;36.80;;;;;;5057720;28;20211;-55
2023/06/12 02:00:08;;;;;;;6.30;5.70;;;19.90;37.10;;;;;;5074873;28;20176;-57
2023/06/12 02:02:36;;;;;;;6.53;5.55;;;19.90;36.70;;;;;;5075350;28;20576;-58
2023/06/12 02:05:04;;;;;;;7.50;5.82;;;19.90;36.80;;;;;;5074999;28;20169;-55
2023/06/12 02:07:30;;;;;;;7.03;5.30;;;19.90;36.90;;;;;;5074838;28;20699;-57
2023/06/12 02:09:55;;;;;;;6.17;5.63;;;19.90;37.00;;;;;;5074718;28;20176;-55
2023/06/12 02:12:21;;;;;;;6.67;5.90;;;19.90;36.80;;;;;;5057157;28;20243;-57
2023/06/12 02:14:50;;;;;;;5.67;5.17;;;19.90;37.30;;;;;;5054952;28;20181;-56
2023/06/12 02:17:17;;;;;;;6.00;5.50;;;19.80;37.00;;;;;;5054659;28;20224;-56
2023/06/12 02:19:43;;;;;;;6.85;5.47;;;19.80;37.00;;;;;;5069672;28;20181;-58
2023/06/12 02:22:09;;;;;;;7.77;5.37;;;19.80;37.70;;;;;;5074711;28;20595;-55
2023/06/12 02:24:35;;;;;;;6.50;5.90;;;19.80;36.80;;;;;;5074796;28;20406;-57
2023/06/12 02:27:01;;;;;;;6.45;5.85;;;19.80;36.70;;;;;;5074547;28;20168;-55
2023/06/12 02:29:27;;;;;;;6.97;5.85;;;19.80;36.90;;;;;;5074471;28;20660;-57
2023/06/12 02:31:53;;;;;;;10.20;5.60;;;19.60;37.20;;;;;;5074535;28;20199;-55
2023/06/12 02:34:19;;;;;;;6.67;6.00;;;19.50;37.20;;;;;;5074544;28;20207;-57
2023/06/12 02:36:46;;;;;;;6.30;5.70;;;19.40;37.10;;;;;;5073040;28;20500;-56
2023/06/12 02:39:13;;;;;;;6.82;6.10;;;19.40;37.40;;;;;;5074203;28;20405;-58
2023/06/12 02:41:43;;;;;;;7.18;6.47;;;19.30;37.60;;;;;;5074426;28;20333;-58
2023/06/12 02:44:09;;;;;;;6.50;5.90;;;19.30;37.60;;;;;;5074397;28;20169;-58
2023/06/12 02:46:56;;;;;;;5.73;5.13;;;19.30;37.70;;;;;;5074236;28;20187;-55
2023/06/12 02:49:24;;;;;;;6.90;6.20;;;19.30;37.90;;;;;;5066891;28;20334;-58
2023/06/12 02:51:50;;;;;;;5.65;5.15;;;19.20;37.70;;;;;;5073951;28;20195;-55
2023/06/12 02:54:18;;;;;;;6.83;5.80;;;19.20;37.70;;;;;;5074209;28;20175;-56
2023/06/12 02:56:47;;;;;;;6.00;5.47;;;19.10;37.70;;;;;;5073959;28;20254;-58
2023/06/12 02:59:18;;;;;;;9.82;5.47;;;19.10;37.60;;;;;;5073801;28;20251;-56
2023/06/12 03:01:44;;;;;;;8.63;5.68;;;19.10;37.90;;;;;;5074188;28;20173;-55
2023/06/12 03:04:12;;;;;;;6.30;5.68;;;19.00;37.60;;;;;;5070324;28;20177;-57
2023/06/12 03:06:39;;;;;;;6.40;5.43;;;19.00;37.80;;;;;;5053816;28;20640;-55
2023/06/12 03:09:08;;;;;;;9.60;6.10;;;18.90;37.60;;;;;;5053888;28;20209;-57
2023/06/12 03:11:37;;;;;;;6.18;5.45;;;18.80;37.60;;;;;;5053904;28;20308;-58
2023/06/12 03:14:07;;;;;;;7.03;5.50;;;18.70;37.40;;;;;;5054055;28;20539;-55
2023/06/12 03:16:33;;;;;;;7.53;5.90;;;18.70;37.50;;;;;;5073645;28;20195;-56
2023/06/12 03:18:59;;;;;;;7.82;6.97;;;18.70;37.60;;;;;;5073460;28;20354;-59
2023/06/12 03:21:47;;;;;;;6.63;5.93;;;18.70;37.60;;;;;;5073575;28;20660;-56
2023/06/12 03:24:13;;;;;;;6.05;5.50;;;18.70;37.50;;;;;;5073577;28;20887;-58
2023/06/12 03:26:41;;;;;;;7.40;6.07;;;18.70;37.40;;;;;;5073651;28;20314;-55
2023/06/12 03:29:07;;;;;;;6.80;6.10;;;18.70;37.70;;;;;;5073027;28;20196;-60
2023/06/12 03:31:33;;;;;;;5.77;5.10;;;18.60;37.80;;;;;;5073350;28;20583;-58
2023/06/12 03:33:59;;;;;;;6.23;5.60;;;18.60;37.70;;;;;;5073477;28;20409;-56
2023/06/12 03:36:25;;;;;;;6.87;6.17;;;18.50;37.80;;;;;;5073257;28;20446;-58
2023/06/12 03:38:51;;;;;;;7.13;6.03;;;18.50;38.30;;;;;;5072103;28;20451;-56
2023/06/12 03:41:20;;;;;;;5.70;5.10;;;18.40;38.00;;;;;;5072793;28;20658;-57
2023/06/12 03:43:46;;;;;;;9.05;7.07;;;18.50;38.20;;;;;;5073214;28;20545;-58
2023/06/12 03:46:12;;;;;;;8.00;6.40;;;18.50;38.10;;;;;;5073139;28;20167;-56
2023/06/12 03:48:38;;;;;;;6.70;5.27;;;18.60;38.00;;;;;;5073260;28;20664;-57
2023/06/12 03:51:04;;;;;;;6.90;6.20;;;18.70;38.10;;;;;;5054668;28;20185;-57
2023/06/12 03:53:30;;;;;;;9.90;6.87;;;18.70;38.10;;;;;;5053091;28;20841;-55
2023/06/12 03:55:55;;;;;;;7.53;6.83;;;18.80;38.10;;;;;;5052418;28;20648;-57
2023/06/12 03:58:22;;;;;;;11.90;5.70;;;18.70;38.30;;;;;;5064699;28;20537;-59
2023/06/12 04:00:48;;;;;;;6.60;5.90;;;18.70;38.20;;;;;;5072651;28;20647;-58
2023/06/12 04:03:17;;;;;;;8.33;6.43;;;18.80;38.30;;;;;;5072796;28;20173;-55
2023/06/12 04:05:48;;;;;;;7.72;6.05;;;18.80;38.30;;;;;;5072763;28;20438;-60
2023/06/12 04:08:14;;;;;;;12.70;5.90;;;18.90;38.60;;;;;;5071247;28;20258;-55
2023/06/12 04:10:40;;;;;;;6.83;6.13;;;18.90;38.60;;;;;;5052459;28;20177;-55
2023/06/12 04:13:06;;;;;;;7.38;5.72;;;19.00;39.10;;;;;;5052516;28;20684;-59
2023/06/12 04:15:32;;;;;;;6.70;5.67;;;19.10;38.50;;;;;;5052863;28;20185;-57
2023/06/12 04:17:58;;;;;;;9.20;5.97;;;19.20;38.30;;;;;;5052437;28;20990;-56
2023/06/12 04:20:26;;;;;;;7.72;6.93;;;19.30;38.00;;;;;;5052217;28;20404;-58
2023/06/12 04:22:52;;;;;;;5.40;4.90;;;19.30;38.10;;;;;;5052422;28;20173;-60
2023/06/12 04:25:18;;;;;;;7.55;6.15;;;19.40;38.10;;;;;;5052528;28;20219;-56
2023/06/12 04:27:44;;;;;;;8.55;4.95;;;19.50;38.70;;;;;;5052139;28;20212;-55
2023/06/12 04:30:11;;;;;;;7.00;6.28;;;19.50;38.00;;;;;;5052159;28;20244;-57
2023/06/12 04:32:37;;;;;;;6.63;6.03;;;19.60;38.00;;;;;;5052399;28;20216;-57
2023/06/12 04:35:05;;;;;;;8.02;5.72;;;19.70;38.10;;;;;;5062165;28;20176;-56
2023/06/12 04:37:31;;;;;;;8.52;6.07;;;19.80;37.90;;;;;;5072021;28;20232;-56
2023/06/12 04:39:57;;;;;;;8.00;5.50;;;19.90;37.80;;;;;;5072049;28;20203;-56
2023/06/12 04:42:23;;;;;;;9.85;6.57;;;20.00;37.40;;;;;;5072665;28;20407;-58
2023/06/12 04:44:49;;;;;;;7.83;6.20;;;20.00;37.20;;;;;;5072421;28;20713;-54
2023/06/12 04:47:16;;;;;;;7.67;6.20;;;20.10;37.20;;;;;;5072095;28;20219;-60
2023/06/12 04:49:45;;;;;;;7.72;5.97;;;20.20;37.00;;;;;;5071976;28;20457;-59
2023/06/12 04:52:12;;;;;;;7.60;6.40;;;20.30;37.10;;;;;;5070925;28;20207;-56
2023/06/12 04:54:41;;;;;;;10.02;6.30;;;20.40;36.50;;;;;;5072005;28;20176;-57
2023/06/12 04:57:12;;;;;;;7.00;5.88;;;20.50;36.50;;;;;;5071699;28;20216;-55
2023/06/12 04:59:39;;;;;;;7.95;7.15;;;20.50;36.30;;;;;;5071890;28;20183;-55
2023/06/12 05:02:07;;;;;;;8.68;6.43;;;20.60;36.60;;;;;;5071979;28;20234;-57
2023/06/12 05:04:35;;;;;;;8.60;6.80;;;20.70;36.10;;;;;;5071723;28;20177;-59
2023/06/12 05:07:03;;;;;;;6.82;6.13;;;20.80;35.70;;;;;;5071942;28;20783;-56
2023/06/12 05:09:29;;;;;;;8.40;6.53;;;20.80;35.80;;;;;;5075128;28;20664;-57
2023/06/12 05:11:55;;;;;;;7.60;6.78;;;20.90;35.80;;;;;;5075984;28;20759;-59
2023/06/12 05:14:21;;;;;;;6.73;6.00;;;20.90;35.30;;;;;;5076147;28;20168;-55
2023/06/12 05:16:47;;;;;;;8.93;6.40;;;21.00;35.20;;;;;;5075859;28;20198;-57
2023/06/12 05:19:13;;;;;;;6.73;5.40;;;21.00;35.40;;;;;;5067842;28;20165;-58
2023/06/12 05:21:41;;;;;;;7.60;6.60;;;21.10;35.40;;;;;;5075624;28;20168;-56
2023/06/12 05:24:10;;;;;;;6.83;6.10;;;21.20;35.60;;;;;;5075733;28;20413;-56
2023/06/12 05:26:37;;;;;;;7.23;6.40;;;21.30;34.80;;;;;;5076023;28;20403;-57
2023/06/12 05:29:03;;;;;;;9.63;6.00;;;21.30;34.40;;;;;;5075494;28;20419;-57
2023/06/12 05:31:29;;;;;;;9.77;7.10;;;21.30;34.30;;;;;;5068289;28;20503;-55
2023/06/12 05:33:55;;;;;;;8.37;5.30;;;21.40;33.80;;;;;;5075886;28;20413;-56
2023/06/12 05:36:21;;;;;;;7.35;5.53;;;21.40;34.00;;;;;;5075441;28;20172;-59
2023/06/12 05:38:47;;;;;;;5.95;5.35;;;21.50;34.00;;;;;;5075427;28;20188;-55
2023/06/12 05:41:15;;;;;;;6.97;5.87;;;21.50;33.90;;;;;;5075556;28;20569;-55
2023/06/12 05:43:44;;;;;;;10.40;5.95;;;21.50;33.40;;;;;;5075573;28;20416;-58
2023/06/12 05:46:10;;;;;;;9.23;5.90;;;21.60;33.90;;;;;;5075362;28;20192;-56
2023/06/12 05:48:36;;;;;;;7.73;5.60;;;21.60;33.50;;;;;;5075529;28;20446;-57
2023/06/12 05:51:04;;;;;;;6.47;5.83;;;21.60;33.20;;;;;;5075027;28;20883;-58
2023/06/12 05:53:32;;;;;;;6.20;5.43;;;21.70;32.60;;;;;;5075595;28;20414;-56
2023/06/12 05:55:57;;;;;;;6.40;5.33;;;21.80;33.10;;;;;;5075220;28;20415;-57
2023/06/12 05:58:23;;;;;;;7.47;6.13;;;21.90;33.00;;;;;;5075223;28;20462;-54
2023/06/12 06:00:49;;;;;;;8.70;5.00;;;22.00;33.30;;;;;;5074960;28;20173;-55
2023/06/12 06:03:19;;;;;;;6.30;5.80;;;22.20;32.70;;;;;;5075041;28;20640;-55
2023/06/12 06:05:48;;;;;;;6.50;5.63;;;22.40;31.90;;;;;;5074987;28;20398;-57
2023/06/12 06:08:14;;;;;;;7.20;5.33;;;22.50;32.60;;;;;;5074738;28;21130;-56
2023/06/12 06:10:40;;;;;;;6.40;5.50;;;22.60;32.30;;;;;;5074847;28;20435;-56
2023/06/12 06:13:07;;;;;;;9.73;5.87;;;22.80;32.30;;;;;;5074695;28;20426;-55
2023/06/12 06:15:32;;;;;;;6.57;5.83;;;22.80;31.90;;;;;;5074853;28;20230;-57
2023/06/12 06:17:58;;;;;;;6.43;5.40;;;22.80;31.30;;;;;;5074543;28;20974;-55
2023/06/12 06:20:24;;;;;;;11.93;6.97;;;22.90;30.90;;;;;;5074038;28;20207;-57
2023/06/12 06:22:50;;;;;;;7.23;6.23;;;22.90;31.30;;;;;;5074255;28;20589;-55
2023/06/12 06:25:17;;;;;;;7.83;5.90;;;23.00;32.10;;;;;;5074603;28;20176;-55
2023/06/12 06:27:43;;;;;;;5.17;4.67;;;23.10;32.00;;;;;;5074577;28;20433;-58
2023/06/12 06:30:09;;;;;;;5.33;4.83;;;23.20;31.30;;;;;;5073039;28;20510;-54
2023/06/12 06:32:35;;;;;;;5.60;5.00;;;23.20;30.90;;;;;;5074605;28;20418;-59
2023/06/12 06:35:02;;;;;;;8.97;6.00;;;23.30;30.80;;;;;;5074581;28;20771;-58
2023/06/12 06:37:28;;;;;;;6.00;5.40;;;23.20;30.10;;;;;;5074382;28;20462;-56
2023/06/12 06:39:54;;;;;;;7.67;5.77;;;23.30;30.60;;;;;;5072927;28;20514;-58
2023/06/12 06:42:20;;;;;;;9.20;5.10;;;23.30;30.30;;;;;;5074387;28;20455;-56
2023/06/12 06:44:46;;;;;;;5.87;5.07;;;23.30;31.10;;;;;;5067559;28;20177;-54
2023/06/12 06:47:12;;;;;;;9.67;5.80;;;23.50;30.70;;;;;;5074070;28;20837;-58
2023/06/12 06:49:38;;;;;;;7.97;5.40;;;23.60;30.10;;;;;;5067770;28;20215;-54
2023/06/12 06:52:04;;;;;;;6.03;5.30;;;23.60;29.80;;;;;;5074423;28;20414;-56
2023/06/12 06:54:30;;;;;;;7.10;5.00;;;23.70;30.30;;;;;;5074267;28;20410;-57
2023/06/12 06:56:56;;;;;;;6.93;5.27;;;23.80;30.00;;;;;;5074130;28;20442;-55
2023/06/12 06:59:23;;;;;;;7.00;6.10;;;23.90;30.50;;;;;;5074002;28;20181;-55
2023/06/12 07:01:49;;;;;;;6.00;5.40;;;24.00;30.20;;;;;;5066770;28;20449;-56
2023/06/12 07:04:15;;;;;;;5.87;5.13;;;24.20;29.90;;;;;;5065703;28;20412;-57
2023/06/12 07:06:41;;;;;;;10.47;5.23;;;24.30;30.40;;;;;;5074148;28;20775;-54
2023/06/12 07:09:08;;;;;;;12.53;6.37;;;24.50;30.00;;;;;;5073797;28;20446;-56
2023/06/12 07:11:34;;;;;;;6.93;6.23;;;24.60;29.10;;;;;;5073849;28;20233;-57
2023/06/12 07:13:59;;;;;;;6.67;5.70;;;24.70;29.40;;;;;;5073788;28;20442;-56
2023/06/12 07:16:26;;;;;;;6.30;5.70;;;24.80;30.30;;;;;;5073567;28;20946;-55
2023/06/12 07:18:52;;;;;;;5.13;4.60;;;24.90;29.60;;;;;;5073787;28;20438;-57
2023/06/12 07:21:18;;;;;;;6.30;5.17;;;25.00;29.20;;;;;;5053250;28;21062;-54
2023/06/12 07:23:43;;;;;;;13.57;5.20;;;25.10;28.20;;;;;;5053864;28;20684;-57
2023/06/12 07:26:09;;;;;;;5.90;4.87;;;25.00;28.30;;;;;;5053716;28;20177;-56
2023/06/12 07:28:35;;;;;;;11.63;5.27;;;25.00;28.60;;;;;;5053497;28;20467;-56
2023/06/12 07:31:01;;;;;;;6.13;5.43;;;25.00;29.10;;;;;;5052333;28;20422;-57
2023/06/12 07:33:27;;;;;;;4.57;4.17;;;25.00;29.40;;;;;;5053267;28;20436;-56
2023/06/12 07:35:53;;;;;;;6.53;5.47;;;25.10;29.30;;;;;;5070375;28;20238;-55
2023/06/12 07:38:19;;;;;;;7.43;5.20;;;25.20;27.50;;;;;;5073188;28;20285;-58
2023/06/12 07:40:45;;;;;;;5.33;4.53;;;25.30;27.60;;;;;;5073014;28;20172;-56
2023/06/12 07:43:11;;;;;;;4.87;4.37;;;25.30;27.70;;;;;;5073252;28;20413;-56
2023/06/12 07:45:37;;;;;;;7.80;5.90;;;25.40;27.10;;;;;;5073101;28;20798;-58
2023/06/12 07:48:03;;;;;;;6.43;4.63;;;25.50;27.80;;;;;;5073231;28;20435;-55
2023/06/12 07:50:29;;;;;;;11.00;5.40;;;25.70;27.80;;;;;;5073043;28;20690;-55
2023/06/12 07:52:54;;;;;;;5.70;4.87;;;25.80;26.50;;;;;;5072860;28;20428;-60
2023/06/12 07:55:21;;;;;;;7.07;4.80;;;25.90;26.00;;;;;;5065550;28;20181;-60
2023/06/12 07:57:50;;;;;;;6.73;4.47;;;26.00;26.20;;;;;;5071624;28;20466;-56
2023/06/12 08:00:17;;;;;;;6.23;5.13;;;26.20;25.50;;;;;;5072348;28;20407;-56
2023/06/12 08:02:44;;;;;;;7.10;4.57;;;26.30;25.30;;;;;;5072946;28;20465;-59
2023/06/12 08:05:11;;;;;;;10.20;5.47;;;26.40;26.00;;;;;;5072801;28;20415;-59
2023/06/12 08:07:37;;;;;;;6.27;4.57;;;26.60;25.70;;;;;;5071422;28;20443;-56
2023/06/12 08:10:03;;;;;;;5.37;4.57;;;26.70;26.20;;;;;;5072464;28;20775;-58
2023/06/12 08:12:29;;;;;;;5.97;4.70;;;26.90;23.90;;;;;;5072524;28;20196;-57
2023/06/12 08:14:55;;;;;;;6.07;4.37;;;27.00;22.40;;;;;;5072496;28;20415;-55
2023/06/12 08:17:21;;;;;;;5.23;4.57;;;27.10;22.20;;;;;;5072447;28;20527;-57
2023/06/12 08:19:48;;;;;;;6.60;4.60;;;27.20;21.10;;;;;;5069477;28;20643;-57
2023/06/12 08:22:15;;;;;;;4.30;3.90;;;27.40;22.10;;;;;;5052787;28;20477;-56
2023/06/12 08:24:43;;;;;;;5.07;4.37;;;27.40;20.80;;;;;;5052566;28;20438;-58
2023/06/12 08:27:11;;;;;;;4.47;4.07;;;27.50;19.80;;;;;;5052403;28;20427;-58
2023/06/12 08:29:39;;;;;;;5.83;4.47;;;27.40;19.70;;;;;;5052081;28;20408;-56
2023/06/12 08:32:06;;;;;;;5.37;4.83;;;27.50;19.90;;;;;;5052647;28;20910;-57
2023/06/12 08:34:32;;;;;;;5.13;4.17;;;27.50;20.20;;;;;;5052379;28;20407;-57
2023/06/12 08:36:58;;;;;;;4.13;3.73;;;27.60;20.50;;;;;;5052171;28;20444;-55
2023/06/12 08:39:24;;;;;;;4.87;3.77;;;27.70;20.90;;;;;;5056938;28;20414;-56
2023/06/12 08:41:59;;;;;;;5.63;4.40;;;27.90;20.30;;;;;;5071852;28;20184;-57
2023/06/12 08:44:25;;;;;;;4.80;3.83;;;28.10;21.80;;;;;;5072125;28;20180;-56
2023/06/12 08:46:56;;;;;;;3.90;3.50;;;28.20;21.10;;;;;;5072192;28;20456;-55
2023/06/12 08:49:22;;;;;;;6.90;4.27;;;28.30;18.80;;;;;;5071450;28;20423;-56
2023/06/12 08:51:51;;;;;;;4.03;3.73;;;28.30;19.20;;;;;;5072147;28;20456;-55
2023/06/12 08:54:17;;;;;;;4.03;3.40;;;28.30;19.40;;;;;;5071988;28;20411;-56
2023/06/12 08:56:45;;;;;;;5.73;4.30;;;28.10;19.30;;;;;;5072019;28;20450;-57
2023/06/12 08:59:11;;;;;;;5.03;3.40;;;28.10;19.40;;;;;;5064312;28;20423;-55
2023/06/12 09:01:41;;;;;;;4.43;3.53;;;28.10;19.50;;;;;;5052052;28;20403;-58
2023/06/12 09:04:19;;;;;;;4.20;3.23;;;28.10;21.40;;;;;;5052250;28;20589;-55
2023/06/12 09:06:48;;;;;;;5.70;4.03;;;28.30;18.90;;;;;;5051901;28;20419;-56
2023/06/12 09:09:14;;;;;;;3.80;3.40;;;28.30;19.10;;;;;;5050232;28;20784;-58
2023/06/12 09:11:39;;;;;;;7.07;3.50;;;28.20;19.60;;;;;;5051514;28;20426;-55
2023/06/12 09:14:06;;;;;;;4.27;3.33;;;28.30;19.10;;;;;;5051845;28;20184;-57
2023/06/12 09:16:32;;;;;;;5.40;4.30;;;28.30;20.40;;;;;;5051943;28;20211;-58
2023/06/12 09:18:58;;;;;;;5.53;3.97;;;28.40;20.20;;;;;;5051604;28;20796;-55
2023/06/12 09:21:24;;;;;;;4.23;3.83;;;28.40;18.80;;;;;;5051671;28;20404;-55
2023/06/12 09:23:52;;;;;;;3.80;3.23;;;28.30;19.90;;;;;;5051786;28;20625;-58
2023/06/12 09:26:21;;;;;;;4.27;3.87;;;28.40;20.00;;;;;;5051980;28;20423;-56
2023/06/12 09:28:50;;;;;;;3.57;3.20;;;28.30;19.10;;;;;;5051719;28;20424;-56
2023/06/12 09:31:16;;;;;;;4.40;3.77;;;28.30;20.30;;;;;;5051727;28;20428;-57
2023/06/12 09:33:44;;;;;;;3.83;3.40;;;28.20;20.90;;;;;;5051788;28;20396;-58
2023/06/12 09:36:12;;;;;;;4.33;3.83;;;28.40;21.30;;;;;;5051703;28;20177;-55
2023/06/12 09:38:38;;;;;;;4.30;3.83;;;28.40;19.50;;;;;;5051468;28;21183;-58
2023/06/12 09:41:06;;;;;;;4.10;3.20;;;28.50;19.70;;;;;;5051559;28;20450;-55
2023/06/12 09:43:33;;;;;;;7.47;3.97;;;28.60;19.70;;;;;;5065596;28;20934;-57
2023/06/12 09:46:03;;;;;;;3.90;3.50;;;28.70;20.50;;;;;;5071555;28;20399;-56
2023/06/12 09:48:37;;;;;;;5.80;3.20;;;28.80;20.40;;;;;;5069544;28;20426;-58
2023/06/12 09:51:07;;;;;;;5.77;3.60;;;28.90;19.20;;;;;;5069765;28;20926;-56
2023/06/12 09:53:39;;;;;;;3.60;3.20;;;28.90;19.10;;;;;;5071681;28;20487;-55
2023/06/12 09:56:07;;;;;;;11.33;3.97;;;28.90;18.70;;;;;;5075277;28;20406;-58
2023/06/12 09:58:37;;;;;;;4.33;3.47;;;28.90;19.80;;;;;;5074960;28;20462;-55
2023/06/12 10:01:06;;;;;;;5.27;3.30;;;28.90;19.10;;;;;;5074880;28;20406;-55
2023/06/12 10:03:38;;;;;;;4.30;3.20;;;28.80;19.50;;;;;;5075309;28;20492;-59
2023/06/12 10:06:07;;;;;;;3.97;3.67;;;28.80;20.30;;;;;;5073891;28;20419;-56
2023/06/12 10:08:35;;;;;;;3.93;3.60;;;28.90;19.60;;;;;;5074991;28;20426;-55
2023/06/12 10:11:03;;;;;;;4.50;3.10;;;29.00;19.60;;;;;;5074895;28;20477;-58
2023/06/12 10:13:31;;;;;;;6.00;2.97;;;29.10;19.70;;;;;;5073415;28;21068;-56
2023/06/12 10:15:57;;;;;;;4.17;3.80;;;29.10;19.50;;;;;;5074245;28;20462;-55
2023/06/12 10:18:24;;;;;;;5.73;3.73;;;29.10;19.60;;;;;;5074632;28;20454;-59
2023/06/12 10:20:52;;;;;;;4.03;3.40;;;29.10;18.60;;;;;;5069682;28;20411;-56
2023/06/12 10:23:19;;;;;;;6.17;3.60;;;29.00;18.60;;;;;;5074249;28;20414;-56
2023/06/12 10:25:47;;;;;;;4.27;3.67;;;29.00;19.20;;;;;;5074782;28;20921;-58
2023/06/12 10:28:13;;;;;;;6.73;3.47;;;29.20;19.00;;;;;;5068064;28;20453;-55
2023/06/12 10:31:11;;;;;;;4.47;4.07;;;29.20;19.40;;;;;;5074271;28;20413;-55
2023/06/12 10:33:38;;;;;;;3.93;3.40;;;29.30;18.90;;;;;;5074704;28;20403;-57
2023/06/12 10:36:13;;;;;;;8.20;4.30;;;29.20;19.50;;;;;;5074609;28;20752;-58
2023/06/12 10:38:47;;;;;;;6.37;3.27;;;29.10;18.50;;;;;;5074301;28;20482;-58
2023/06/12 10:41:28;;;;;;;4.57;3.47;;;29.00;18.40;;;;;;5074273;28;20406;-56
2023/06/12 10:43:54;;;;;;;3.87;3.17;;;28.90;19.30;;;;;;5074541;28;20406;-55
2023/06/12 10:46:21;;;;;;;4.27;3.33;;;29.00;21.40;;;;;;5070782;28;20423;-58
2023/06/12 10:48:47;;;;;;;3.73;3.33;;;29.20;19.60;;;;;;5074253;28;20783;-55
2023/06/12 10:51:13;;;;;;;4.70;3.50;;;29.30;19.10;;;;;;5074080;28;20918;-56
2023/06/12 10:53:46;;;;;;;3.67;3.20;;;29.30;18.40;;;;;;5074551;28;20403;-58
2023/06/12 10:56:12;;;;;;;4.60;3.30;;;29.40;18.30;;;;;;5074328;28;20595;-56
2023/06/12 10:58:42;;;;;;;5.87;3.53;;;29.30;19.70;;;;;;5068500;28;20504;-55
2023/06/12 11:01:19;;;;;;;5.30;3.33;;;29.30;18.90;;;;;;5073830;28;20411;-58
2023/06/12 11:03:45;;;;;;;7.97;3.40;;;29.20;18.90;;;;;;5074203;28;20418;-56
2023/06/12 11:06:15;;;;;;;6.73;3.50;;;29.20;19.10;;;;;;5072978;28;20438;-56
2023/06/12 11:08:42;;;;;;;4.73;3.70;;;29.20;18.90;;;;;;5073994;28;20197;-56
2023/06/12 11:11:09;;;;;;;5.80;3.33;;;29.20;19.20;;;;;;5073761;28;20472;-56
2023/06/12 11:13:39;;;;;;;4.33;3.93;;;29.20;19.10;;;;;;5073913;28;20431;-56
2023/06/12 11:16:05;;;;;;;6.60;3.90;;;29.20;18.60;;;;;;5073779;28;20502;-58
2023/06/12 11:18:31;;;;;;;4.77;3.30;;;29.20;18.40;;;;;;5073658;28;20497;-56
2023/06/12 11:20:57;;;;;;;4.60;3.10;;;29.20;19.20;;;;;;5073895;28;20422;-58
2023/06/12 11:23:25;;;;;;;5.33;2.93;;;29.30;19.70;;;;;;5073818;28;20628;-58
2023/06/12 11:25:53;;;;;;;4.33;3.90;;;29.40;19.40;;;;;;5073477;28;20404;-56
2023/06/12 11:28:28;;;;;;;4.53;3.60;;;29.40;19.30;;;;;;5073509;28;20788;-56
2023/06/12 11:30:54;;;;;;;4.43;3.57;;;29.40;20.00;;;;;;5073266;28;21091;-58
2023/06/12 11:33:22;;;;;;;7.03;4.37;;;29.50;20.00;;;;;;5073701;28;20868;-58
2023/06/12 11:35:52;;;;;;;4.47;4.07;;;29.50;20.20;;;;;;5073308;28;20403;-55
2023/06/12 11:38:21;;;;;;;4.90;3.43;;;29.40;19.40;;;;;;5071716;28;20831;-59
2023/06/12 11:40:48;;;;;;;7.47;4.30;;;29.40;20.10;;;;;;5073031;28;20407;-59
2023/06/12 11:43:23;;;;;;;5.53;3.53;;;29.40;20.20;;;;;;5073195;28;20490;-58
2023/06/12 11:45:52;;;;;;;6.53;4.70;;;29.50;20.40;;;;;;5073192;28;20402;-59
2023/06/12 11:48:18;;;;;;;5.20;3.80;;;29.50;20.00;;;;;;5073146;28;20427;-56
2023/06/12 11:50:49;;;;;;;4.67;3.63;;;29.40;19.50;;;;;;5073186;28;20399;-56
2023/06/12 11:53:16;;;;;;;5.33;3.90;;;29.30;19.70;;;;;;5073137;28;20917;-58
2023/06/12 11:55:45;;;;;;;3.70;3.37;;;29.30;19.70;;;;;;5072945;28;20950;-55
2023/06/12 11:58:10;;;;;;;3.60;3.30;;;29.30;19.70;;;;;;5072375;28;20882;-58
2023/06/12 12:00:39;;;;;;;6.63;3.83;;;29.40;19.30;;;;;;5066211;28;20457;-58
2023/06/12 12:03:08;;;;;;;5.20;3.57;;;29.40;19.60;;;;;;5055526;28;20222;-56
2023/06/12 12:05:37;;;;;;;6.40;3.20;;;29.60;20.20;;;;;;5072873;28;20397;-56
2023/06/12 12:08:04;;;;;;;5.40;4.07;;;29.70;19.80;;;;;;5071019;28;21037;-58
2023/06/12 12:10:39;;;;;;;5.20;3.40;;;29.80;18.60;;;;;;5066584;28;20411;-56
2023/06/12 12:13:06;;;;;;;5.00;4.10;;;29.70;18.90;;;;;;5072385;28;20438;-56
2023/06/12 12:15:35;;;;;;;5.07;4.53;;;29.70;19.70;;;;;;5072713;28;20733;-59
2023/06/12 12:18:01;;;;;;;4.60;4.10;;;29.70;19.50;;;;;;5072237;28;20466;-56
2023/06/12 12:20:29;;;;;;;6.77;3.83;;;29.70;18.90;;;;;;5072331;28;20486;-56
2023/06/12 12:22:57;;;;;;;10.73;4.00;;;29.70;19.50;;;;;;5072478;28;20480;-57
2023/06/12 12:25:25;;;;;;;3.43;3.13;;;29.80;19.00;;;;;;5072498;28;20456;-58
2023/06/12 12:27:53;;;;;;;4.93;4.30;;;29.80;19.60;;;;;;5072455;28;20630;-56
2023/06/12 12:30:23;;;;;;;4.50;4.10;;;29.90;19.90;;;;;;5072262;28;20412;-56
2023/06/12 12:32:51;;;;;;;6.73;4.20;;;30.00;20.20;;;;;;5072433;28;20416;-57
2023/06/12 12:35:17;;;;;;;4.57;4.10;;;30.20;20.10;;;;;;5072424;28;20498;-56
2023/06/12 12:37:44;;;;;;;3.53;3.23;;;30.20;20.50;;;;;;5072175;28;20454;-56
2023/06/12 12:40:13;;;;;;;6.17;4.20;;;30.30;20.70;;;;;;5072355;28;20411;-55
2023/06/12 12:42:46;;;;;;;7.70;4.63;;;30.40;19.90;;;;;;5072262;28;20418;-56
2023/06/12 12:45:14;;;;;;;5.30;3.60;;;30.40;20.20;;;;;;5072312;28;20410;-61
2023/06/12 12:47:40;;;;;;;5.73;3.93;;;30.50;20.20;;;;;;5072231;28;20939;-56